createdAt,value
2019-01-03T00:00:34.748Z,12.63
2019-01-03T00:03:35.229Z,12.23
2019-01-03T00:09:42.645Z,8.67
2019-01-03T00:12:44.098Z,12.17
2019-01-03T00:15:44.494Z,10.87
2019-01-03T00:21:35.528Z,10.90
2019-01-03T00:24:43.757Z,12.03
2019-01-03T00:30:27.759Z,11.33
2019-01-03T00:33:28.558Z,7.07
2019-01-03T00:42:23.168Z,7.20
2019-01-03T00:47:55.257Z,8.67
2019-01-03T00:51:03.129Z,10.10
2019-01-03T00:54:03.113Z,8.77
2019-01-03T00:57:04.871Z,6.13
2019-01-03T01:00:05.347Z,8.00
2019-01-03T01:02:45.330Z,8.90
2019-01-03T01:05:45.365Z,5.70
2019-01-03T01:08:36.927Z,5.77
2019-01-03T01:14:42.311Z,8.03
2019-01-03T01:17:42.495Z,7.23
2019-01-03T01:20:48.746Z,7.77
2019-01-03T01:26:56.002Z,8.13
2019-01-03T01:29:55.948Z,8.07
2019-01-03T01:32:56.631Z,8.70
2019-01-03T01:35:57.012Z,9.10
2019-01-03T01:41:49.162Z,6.37
2019-01-03T01:44:56.626Z,8.67
2019-01-03T01:47:59.581Z,8.47
2019-01-03T01:51:02.427Z,8.97
2019-01-03T01:56:59.000Z,4.20
2019-01-03T02:00:06.444Z,8.50
2019-01-03T02:05:54.281Z,3.23
2019-01-03T02:08:54.633Z,6.93
2019-01-03T02:11:54.740Z,4.50
2019-01-03T02:14:54.429Z,5.63
2019-01-03T02:17:54.737Z,6.73
2019-01-03T02:23:47.710Z,6.23
2019-01-03T02:26:48.314Z,6.03
2019-01-03T02:29:49.384Z,10.90
2019-01-03T02:32:49.558Z,3.97
2019-01-03T02:35:31.505Z,6.83
2019-01-03T02:41:41.305Z,5.80
2019-01-03T02:44:35.535Z,6.23
2019-01-03T02:47:41.704Z,4.03
2019-01-03T02:53:44.344Z,5.00
2019-01-03T02:56:32.689Z,4.83
2019-01-03T02:59:40.200Z,5.50
2019-01-03T03:02:40.721Z,7.07
2019-01-03T03:05:34.968Z,3.20
2019-01-03T03:08:39.205Z,7.87
2019-01-03T03:11:39.174Z,5.20
2019-01-03T03:14:45.426Z,5.07
2019-01-03T03:20:53.298Z,5.87
2019-01-03T03:23:53.621Z,7.03
2019-01-03T03:26:54.277Z,4.87
2019-01-03T03:32:56.340Z,6.37
2019-01-03T03:35:56.450Z,5.07
2019-01-03T03:38:56.109Z,5.83
2019-01-03T03:45:04.339Z,3.80
2019-01-03T03:47:59.712Z,4.13
2019-01-03T03:54:12.366Z,5.97
2019-01-03T03:57:12.739Z,4.17
2019-01-03T04:00:14.380Z,5.73
2019-01-03T04:03:14.831Z,5.80
2019-01-03T04:06:15.012Z,4.47
2019-01-03T04:09:18.283Z,3.63
2019-01-03T04:12:24.346Z,4.90
2019-01-03T04:15:27.192Z,4.70
2019-01-03T04:18:23.837Z,7.43
2019-01-03T04:21:27.200Z,4.80
2019-01-03T04:24:27.683Z,6.57
2019-01-03T04:27:34.081Z,7.40
2019-01-03T04:33:19.141Z,9.73
2019-01-03T04:36:19.495Z,9.73
2019-01-03T04:42:05.116Z,8.13
2019-01-03T04:48:04.413Z,4.67
2019-01-03T04:51:03.981Z,6.27
2019-01-03T04:54:04.253Z,7.97
2019-01-03T04:57:05.049Z,7.90
2019-01-03T05:03:12.405Z,8.73
2019-01-03T05:06:12.616Z,9.77
2019-01-03T05:09:16.146Z,5.70
2019-01-03T05:12:22.362Z,8.57
2019-01-03T05:15:25.431Z,6.80
2019-01-03T05:18:20.376Z,9.90
2019-01-03T05:21:01.568Z,7.17
2019-01-03T05:24:04.943Z,9.23
2019-01-03T05:26:53.389Z,6.87
2019-01-03T05:30:01.119Z,6.00
2019-01-03T05:33:01.446Z,5.03
2019-01-03T05:36:01.861Z,11.97
2019-01-03T05:39:02.460Z,6.40
2019-01-03T05:41:56.344Z,9.70
2019-01-03T05:44:45.135Z,12.50
2019-01-03T05:47:35.429Z,7.10
2019-01-03T05:50:24.490Z,8.43
2019-01-03T05:53:33.018Z,8.97
2019-01-03T05:56:21.706Z,7.97
2019-01-03T06:02:25.268Z,9.03
2019-01-03T06:08:18.220Z,10.23
2019-01-03T06:11:25.628Z,6.97
2019-01-03T06:14:26.275Z,6.80
2019-01-03T06:17:26.639Z,9.60
2019-01-03T06:20:29.450Z,12.40
2019-01-03T06:23:29.559Z,9.57
2019-01-03T06:26:31.035Z,9.83
2019-01-03T06:29:31.280Z,7.77
2019-01-03T06:32:31.691Z,9.13
2019-01-03T06:35:38.513Z,10.33
2019-01-03T06:41:31.244Z,7.27
2019-01-03T06:44:35.495Z,9.40
2019-01-03T06:47:41.612Z,6.90
2019-01-03T06:53:30.124Z,7.60
2019-01-03T06:59:28.194Z,8.83
2019-01-03T07:02:16.809Z,12.77
2019-01-03T07:05:18.966Z,8.43
2019-01-03T07:08:19.508Z,8.50
2019-01-03T07:11:25.779Z,7.53
2019-01-03T07:17:04.408Z,9.57
2019-01-03T07:25:40.893Z,13.43
2019-01-03T07:31:26.523Z,8.97
2019-01-03T07:34:26.910Z,7.33
2019-01-03T07:37:28.143Z,8.53
2019-01-03T07:40:20.877Z,10.27
2019-01-03T07:43:20.614Z,11.27
2019-01-03T07:49:08.329Z,26.67
2019-01-03T07:52:09.026Z,22.70
2019-01-03T07:55:09.646Z,19.73
2019-01-03T07:57:51.336Z,13.97
2019-01-03T08:00:51.833Z,17.30
2019-01-03T08:03:55.490Z,14.40
2019-01-03T08:09:57.420Z,12.23
2019-01-03T08:16:07.983Z,13.67
2019-01-03T08:19:14.492Z,16.23
2019-01-03T08:21:56.600Z,13.27
2019-01-03T08:30:53.577Z,10.73
2019-01-03T08:33:57.070Z,12.60
2019-01-03T08:39:46.087Z,10.73
2019-01-03T08:45:29.193Z,11.17
2019-01-03T08:48:35.779Z,11.37
2019-01-03T08:51:20.231Z,11.13
2019-01-03T08:57:29.167Z,12.03
2019-01-03T09:03:18.657Z,9.63
2019-01-03T09:06:21.410Z,11.67
2019-01-03T09:09:06.261Z,10.20
2019-01-03T09:14:50.807Z,8.30
2019-01-03T09:17:51.075Z,10.83
2019-01-03T09:20:51.291Z,7.13
2019-01-03T09:23:51.826Z,8.10
2019-01-03T09:29:26.154Z,7.50
2019-01-03T09:32:33.701Z,6.50
2019-01-03T09:35:36.959Z,7.27
2019-01-03T09:38:19.449Z,5.40
2019-01-03T09:41:21.607Z,7.97
2019-01-03T09:44:21.777Z,6.90
2019-01-03T09:46:51.165Z,7.47
2019-01-03T09:52:35.927Z,8.50
2019-01-03T09:55:17.252Z,6.97
2019-01-03T09:57:58.390Z,9.77
2019-01-03T10:00:41.064Z,9.57
2019-01-03T10:03:22.508Z,8.37
2019-01-03T10:06:04.441Z,8.13
2019-01-03T10:08:45.366Z,4.67
2019-01-03T10:11:26.962Z,7.23
2019-01-03T10:14:08.182Z,7.83
2019-01-03T10:16:49.436Z,8.00
2019-01-03T10:19:31.876Z,7.17
2019-01-03T10:22:13.621Z,8.40
2019-01-03T10:24:54.743Z,8.17
2019-01-03T10:27:35.717Z,8.50
2019-01-03T10:30:17.213Z,9.27
2019-01-03T10:32:58.957Z,6.73
2019-01-03T10:35:40.210Z,8.83
2019-01-03T10:41:18.831Z,6.83
2019-01-03T10:44:00.091Z,8.47
2019-01-03T10:49:16.622Z,6.30
2019-01-03T10:52:05.481Z,8.17
2019-01-03T10:54:46.807Z,5.97
2019-01-03T11:00:14.224Z,8.10
2019-01-03T11:05:37.601Z,4.93
2019-01-03T11:11:05.322Z,5.93
2019-01-03T11:16:29.019Z,4.97
2019-01-03T11:19:11.037Z,3.87
2019-01-03T11:21:52.582Z,4.60
2019-01-03T11:24:33.908Z,3.23
2019-01-03T11:27:16.174Z,4.50
2019-01-03T11:29:59.496Z,3.63
2019-01-03T11:32:41.627Z,3.60
2019-01-03T11:38:05.349Z,3.00
2019-01-03T11:43:35.958Z,5.10
2019-01-03T11:46:17.443Z,3.93
2019-01-03T11:48:47.383Z,4.83
2019-01-03T11:51:36.353Z,4.40
2019-01-03T11:54:17.486Z,4.83
2019-01-03T11:56:59.017Z,4.77
2019-01-03T11:59:40.053Z,5.13
2019-01-03T12:02:25.626Z,3.83
2019-01-03T12:05:04.193Z,3.20
2019-01-03T12:07:46.506Z,2.83
2019-01-03T12:10:27.676Z,6.43
2019-01-03T12:13:07.338Z,3.70
2019-01-03T12:15:48.314Z,5.10
2019-01-03T12:21:16.140Z,3.73
2019-01-03T12:23:57.934Z,4.70
2019-01-03T12:26:39.585Z,4.07
2019-01-03T12:29:20.580Z,4.50
2019-01-03T12:32:01.373Z,5.10
2019-01-03T12:34:42.786Z,5.80
2019-01-03T12:37:24.582Z,3.87
2019-01-03T12:40:06.219Z,3.17
2019-01-03T12:42:47.158Z,2.67
2019-01-03T12:45:29.097Z,2.60
2019-01-03T12:47:58.561Z,3.30
2019-01-03T12:50:46.951Z,2.37
2019-01-03T12:56:02.996Z,2.73
2019-01-03T12:58:51.624Z,2.87
2019-01-03T13:04:16.313Z,5.17
2019-01-03T13:07:04.811Z,5.27
2019-01-03T13:09:46.506Z,3.93
2019-01-03T13:12:27.910Z,5.87
2019-01-03T13:15:09.809Z,3.93
2019-01-03T13:17:51.151Z,5.07
2019-01-03T13:20:31.255Z,3.93
2019-01-03T13:23:12.775Z,5.03
2019-01-03T13:25:54.456Z,4.90
2019-01-03T13:28:36.006Z,4.47
2019-01-03T13:31:17.623Z,6.13
2019-01-03T13:36:44.710Z,6.20
2019-01-03T13:39:26.515Z,5.20
2019-01-03T13:42:07.947Z,5.13
2019-01-03T13:44:49.754Z,5.53
2019-01-03T13:47:30.933Z,5.33
2019-01-03T13:50:16.858Z,3.50
2019-01-03T13:55:32.270Z,5.53
2019-01-03T13:58:20.890Z,3.27
2019-01-03T14:01:02.820Z,3.07
2019-01-03T14:06:31.184Z,7.80
2019-01-03T14:11:57.763Z,3.60
2019-01-03T14:17:16.652Z,5.80
2019-01-03T14:20:06.109Z,5.27
2019-01-03T14:22:46.217Z,4.50
2019-01-03T14:25:27.486Z,2.60
2019-01-03T14:28:09.735Z,3.87
2019-01-03T14:30:52.088Z,5.67
2019-01-03T14:33:36.434Z,3.83
2019-01-03T14:36:18.086Z,5.93
2019-01-03T14:38:59.628Z,2.60
2019-01-03T14:41:41.409Z,4.70
2019-01-03T14:44:22.459Z,4.87
2019-01-03T14:47:05.036Z,4.43
2019-01-03T14:52:35.692Z,5.20
2019-01-03T14:55:05.698Z,2.53
2019-01-03T14:57:35.434Z,6.43
2019-01-03T15:00:24.305Z,3.50
2019-01-03T15:03:12.967Z,3.63
2019-01-03T15:08:45.482Z,4.70
2019-01-03T15:11:26.860Z,5.23
2019-01-03T15:14:08.218Z,2.63
2019-01-03T15:16:49.968Z,1.90
2019-01-03T15:19:31.204Z,2.70
2019-01-03T15:24:40.264Z,4.37
2019-01-03T15:27:30.000Z,3.60
2019-01-03T15:30:11.858Z,5.10
2019-01-03T15:32:53.032Z,4.37
2019-01-03T15:35:34.557Z,4.53
2019-01-03T15:38:16.519Z,3.80
2019-01-03T15:40:57.926Z,4.30
2019-01-03T15:43:39.034Z,3.77
2019-01-03T15:46:20.497Z,4.40
2019-01-03T15:51:46.328Z,6.57
2019-01-03T15:57:11.701Z,4.07
2019-01-03T16:02:50.163Z,4.13
2019-01-03T16:05:31.903Z,5.37
2019-01-03T16:08:13.856Z,4.97
2019-01-03T16:13:39.270Z,5.63
2019-01-03T16:19:06.848Z,5.63
2019-01-03T16:21:48.604Z,5.33
2019-01-03T16:24:30.053Z,13.63
2019-01-03T16:27:11.475Z,5.00
2019-01-03T16:29:53.240Z,5.27
2019-01-03T16:32:35.743Z,6.17
2019-01-03T16:35:17.606Z,9.07
2019-01-03T16:37:47.283Z,8.47
2019-01-03T16:40:36.166Z,6.43
2019-01-03T16:43:17.596Z,7.90
2019-01-03T16:45:59.850Z,7.57
2019-01-03T16:48:41.270Z,9.60
2019-01-03T16:51:23.038Z,8.47
2019-01-03T16:54:06.417Z,8.47
2019-01-03T16:56:35.671Z,8.87
2019-01-03T16:59:24.525Z,10.30
2019-01-03T17:02:06.255Z,11.73
2019-01-03T17:04:47.427Z,10.77
2019-01-03T17:07:16.911Z,12.13
2019-01-03T17:10:06.765Z,9.83
2019-01-03T17:12:50.491Z,9.83
2019-01-03T17:15:31.950Z,9.20
2019-01-03T17:18:12.689Z,10.30
2019-01-03T17:20:53.489Z,10.77
2019-01-03T17:23:35.500Z,12.17
2019-01-03T17:26:16.782Z,12.27
2019-01-03T17:29:00.560Z,14.00
2019-01-03T17:31:41.964Z,14.10
2019-01-03T17:34:23.150Z,13.67
2019-01-03T17:39:46.990Z,16.40
2019-01-03T17:42:16.558Z,15.07
2019-01-03T17:45:05.465Z,14.83
2019-01-03T17:47:54.004Z,14.00
2019-01-03T17:50:36.600Z,14.07
2019-01-03T17:53:17.472Z,14.77
2019-01-03T17:55:59.648Z,14.10
2019-01-03T17:58:40.939Z,15.07
2019-01-03T18:01:23.495Z,16.00
2019-01-03T18:03:53.105Z,15.30
2019-01-03T18:12:23.656Z,16.10
2019-01-03T18:15:05.103Z,15.53
2019-01-03T18:17:45.824Z,15.07
2019-01-03T18:20:27.268Z,19.40
2019-01-03T18:23:09.255Z,18.93
2019-01-03T18:25:50.398Z,20.17
2019-01-03T18:28:32.297Z,15.80
2019-01-03T18:31:13.646Z,17.67
2019-01-03T18:33:55.348Z,20.40
2019-01-03T18:36:37.103Z,17.30
2019-01-03T18:39:18.095Z,18.10
2019-01-03T18:41:59.865Z,15.47
2019-01-03T18:44:40.771Z,14.27
2019-01-03T18:47:22.444Z,16.30
2019-01-03T18:50:04.728Z,14.43
2019-01-03T18:52:46.144Z,14.33
2019-01-03T18:55:27.871Z,16.47
2019-01-03T18:58:08.839Z,16.97
2019-01-03T19:00:50.329Z,17.83
2019-01-03T19:03:31.819Z,18.70
2019-01-03T19:06:15.191Z,17.47
2019-01-03T19:08:57.635Z,18.70
2019-01-03T19:11:39.162Z,16.67
2019-01-03T19:17:05.605Z,18.60
2019-01-03T19:19:48.660Z,16.80
2019-01-03T19:22:30.270Z,18.20
2019-01-03T19:25:10.542Z,18.77
2019-01-03T19:27:52.922Z,17.47
2019-01-03T19:30:34.023Z,17.73
2019-01-03T19:33:15.622Z,16.90
2019-01-03T19:35:57.063Z,19.03
2019-01-03T19:38:39.462Z,16.83
2019-01-03T19:41:21.117Z,21.87
2019-01-03T19:44:03.703Z,17.37
2019-01-03T19:46:44.546Z,19.67
2019-01-03T19:49:25.863Z,19.40
2019-01-03T19:52:09.021Z,20.57
2019-01-03T19:54:50.306Z,20.53
2019-01-03T19:57:31.446Z,23.53
2019-01-03T20:00:00.923Z,24.87
2019-01-03T20:02:49.892Z,23.50
2019-01-03T20:05:38.811Z,22.80
2019-01-03T20:08:19.967Z,22.77
2019-01-03T20:14:13.942Z,23.07
2019-01-03T20:16:55.287Z,21.20
2019-01-03T20:19:36.612Z,23.63
2019-01-03T20:22:18.123Z,20.77
2019-01-03T20:25:00.468Z,21.90
2019-01-03T20:27:41.917Z,21.47
2019-01-03T20:30:23.825Z,21.60
2019-01-03T20:33:06.134Z,20.97
2019-01-03T20:35:49.561Z,22.70
2019-01-03T20:38:30.319Z,20.27
2019-01-03T20:41:11.940Z,18.77
2019-01-03T20:43:53.510Z,18.00
2019-01-03T20:46:36.189Z,19.77
2019-01-03T20:52:07.564Z,19.30
2019-01-03T20:54:37.063Z,18.17
2019-01-03T20:57:25.834Z,18.70
2019-01-03T21:03:22.300Z,18.10
2019-01-03T21:06:03.475Z,17.67
2019-01-03T21:08:44.290Z,16.57
2019-01-03T21:11:25.594Z,15.43
2019-01-03T21:14:06.938Z,17.10
2019-01-03T21:16:48.524Z,15.63
2019-01-03T21:19:30.391Z,16.97
2019-01-03T21:22:12.097Z,17.10
2019-01-03T21:24:56.563Z,18.53
2019-01-03T21:27:37.808Z,19.17
2019-01-03T21:30:18.613Z,18.63
2019-01-03T21:32:59.574Z,19.03
2019-01-03T21:35:40.888Z,19.10
2019-01-03T21:38:21.745Z,18.63
2019-01-03T21:41:02.590Z,19.70
2019-01-03T21:46:27.475Z,18.77
2019-01-03T21:49:08.561Z,19.40
2019-01-03T21:51:50.350Z,20.03
2019-01-03T21:54:31.867Z,19.27
2019-01-03T21:57:01.479Z,17.40
2019-01-03T21:59:42.192Z,19.83
2019-01-03T22:02:11.722Z,18.73
2019-01-03T22:05:00.346Z,17.67
2019-01-03T22:07:48.735Z,18.57
2019-01-03T22:10:37.252Z,17.87
2019-01-03T22:13:18.895Z,16.43
2019-01-03T22:15:59.894Z,17.10
2019-01-03T22:18:41.489Z,16.67
2019-01-03T22:21:23.106Z,15.07
2019-01-03T22:23:52.682Z,18.43
2019-01-03T22:26:41.332Z,21.03
2019-01-03T22:29:22.654Z,21.77
2019-01-03T22:32:04.304Z,18.07
2019-01-03T22:34:45.879Z,17.17
2019-01-03T22:40:11.873Z,18.03
2019-01-03T22:45:31.734Z,17.07
2019-01-03T22:48:13.647Z,17.03
2019-01-03T22:50:56.211Z,14.83
2019-01-03T22:53:38.071Z,15.23
2019-01-03T22:56:07.907Z,16.27
2019-01-03T22:58:56.791Z,16.67
2019-01-03T23:01:38.139Z,15.63
2019-01-03T23:04:18.991Z,14.90
2019-01-03T23:07:00.535Z,14.17
2019-01-03T23:09:43.404Z,15.53
2019-01-03T23:12:24.750Z,14.27
2019-01-03T23:15:06.260Z,14.93
2019-01-03T23:17:35.740Z,15.00
2019-01-03T23:20:24.575Z,13.00
2019-01-03T23:23:05.459Z,13.50
2019-01-03T23:25:47.046Z,14.53
2019-01-03T23:28:29.394Z,13.23
2019-01-03T23:31:11.528Z,13.10
2019-01-03T23:33:52.584Z,12.23
2019-01-03T23:36:34.280Z,12.83
2019-01-03T23:39:15.769Z,11.73
2019-01-03T23:41:56.559Z,10.33
2019-01-03T23:44:37.237Z,9.40
2019-01-03T23:47:18.543Z,11.33
2019-01-03T23:50:02.541Z,7.43
2019-01-03T23:52:43.702Z,7.67
2019-01-03T23:55:25.335Z,7.97
2019-01-03T23:58:07.074Z,13.07
